F/V Kadege — FOWB — position and weather

sailwx.info

Track history (hours):
 
Tides and Currents Weather Stations Pressure Air Temp Water Temp Dewpoint Dewpoint Depression Visibility Wind Speed Wind Dir Waves Ship Positions

F/V Kadege

Last reported at 2017-Nov-18 15:30 UTC. Time now 2017-Nov-22 02:02 UTC.
Position N 48°22' W 004°47'.

Length 15 m; draft 3 m.

Type: Fishing. MMSI: 226084000.

Date/timePositionNaut miles runAvg speedWind from/ knotsBaromVisibWave heightAir tempDewpointWater temp
2017-Nov-18 15:30N 48°22' W 004°47'2 3.0
2017-Nov-18 15:01N 48°22' W 004°49'4 8.3
2017-Nov-18 14:31N 48°25' W 004°53'4 8.3
2017-Nov-18 14:01N 48°28' W 004°58'510.2
2017-Nov-18 13:30N 48°30' W 005°05'611.0
2017-Nov-18 13:00N 48°29' W 005°14'11 7.8
2017-Nov-18 11:37N 48°27' W 005°30'1 3.6
2017-Nov-18 11:26N 48°28' W 005°29'1 1.2
2017-Nov-18 10:43N 48°27' W 005°30'1 5.9
2017-Nov-18 10:30N 48°27' W 005°29'2 2.5
2017-Nov-18 09:40N 48°25' W 005°31'1 2.8
2017-Nov-18 09:20N 48°26' W 005°30'2 3.8
2017-Nov-18 08:53N 48°25' W 005°32'1 1.9
2017-Nov-18 08:18N 48°24' W 005°34'1 1.8
2017-Nov-18 07:53N 48°25' W 005°33'2 4.2
2017-Nov-18 07:25N 48°23' W 005°34'1 1.3
2017-Nov-18 06:41N 48°23' W 005°32'2 4.5
2017-Nov-18 06:19N 48°24' W 005°30'1 0.9
2017-Nov-18 05:46N 48°23' W 005°31'1 1.1
2017-Nov-18 05:10N 48°23' W 005°30'1 3.6
2017-Nov-18 05:00N 48°23' W 005°30'4 7.9
2017-Nov-18 04:27N 48°22' W 005°23'4 8.0
2017-Nov-18 04:00N 48°22' W 005°18'4 8.2
2017-Nov-18 03:30N 48°21' W 005°12'4 8.7
2017-Nov-18 03:01N 48°21' W 005°05'4 8.9
2017-Nov-18 02:31N 48°20' W 004°59'4 8.3
2017-Nov-18 02:01N 48°20' W 004°52'4 7.0
2017-Nov-18 01:31N 48°21' W 004°48'1 0.0
2017-Nov-17 05:56N 48°22' W 004°47'0 0.0
2017-Nov-16 15:49N 48°22' W 004°47'0 0.1
2017-Nov-16 15:30N 48°22' W 004°47'4 8.5
2017-Nov-16 15:00N 48°24' W 004°52'4 8.5
2017-Nov-16 14:30N 48°27' W 004°57'5 9.0
2017-Nov-16 14:00N 48°30' W 005°02'610.4
2017-Nov-16 13:28N 48°30' W 005°11'510.0
2017-Nov-16 12:59N 48°29' W 005°18'9 5.1
2017-Nov-16 11:18N 48°27' W 005°31'1 1.1
2017-Nov-16 10:38N 48°27' W 005°31'1 2.9
2017-Nov-16 10:06N 48°26' W 005°30'0 3.5
2017-Nov-16 09:59N 48°26' W 005°29'1 1.9
2017-Nov-16 09:23N 48°25' W 005°31'1 1.4
2017-Nov-16 08:43N 48°25' W 005°32'1 1.4
2017-Nov-16 07:58N 48°24' W 005°33'2 3.2
2017-Nov-16 07:22N 48°22' W 005°34'2 1.6
2017-Nov-16 06:13N 48°23' W 005°31'1 1.2
2017-Nov-16 05:29N 48°23' W 005°30'1 0.8
2017-Nov-16 04:50N 48°23' W 005°29'2 6.7
2017-Nov-16 04:30N 48°23' W 005°26'5 8.2
2017-Nov-16 03:54N 48°23' W 005°18'3 8.3
2017-Nov-16 03:30N 48°23' W 005°14'4 8.6
2017-Nov-16 03:00N 48°22' W 005°07'4 8.7
2017-Nov-16 02:30N 48°22' W 005°01'4 8.3
2017-Nov-16 02:00N 48°22' W 004°55'4 8.1
2017-Nov-16 01:30N 48°22' W 004°48'1 0.1
2017-Nov-15 13:22N 48°22' W 004°47'0 0.1
2017-Nov-15 13:01N 48°22' W 004°47'3 5.7
2017-Nov-15 12:30N 48°22' W 004°51'5 9.2
2017-Nov-15 12:00N 48°22' W 004°58'4 8.2
2017-Nov-15 11:30N 48°22' W 005°04'4 8.2
2017-Nov-15 10:59N 48°22' W 005°10'5 8.3
2017-Nov-15 10:25N 48°24' W 005°17'1 3.4
2017-Nov-15 10:00N 48°24' W 005°19'1 2.2
2017-Nov-15 09:29N 48°23' W 005°20'1 1.9
2017-Nov-15 08:59N 48°22' W 005°20'2 3.5
2017-Nov-15 08:30N 48°23' W 005°21'1 2.1
2017-Nov-15 07:59N 48°24' W 005°21'1 1.4
2017-Nov-15 07:26N 48°25' W 005°21'1 1.9
2017-Nov-15 06:57N 48°25' W 005°19'1 1.6
2017-Nov-15 06:27N 48°26' W 005°19'1 1.9
2017-Nov-15 05:55N 48°27' W 005°19'2 4.2
2017-Nov-15 05:30N 48°25' W 005°21'1 1.7
2017-Nov-15 05:00N 48°26' W 005°21'1 2.1
2017-Nov-15 04:30N 48°27' W 005°20'1 1.1
2017-Nov-15 04:00N 48°28' W 005°20'4 8.3
2017-Nov-15 03:30N 48°26' W 005°15'4 8.6
2017-Nov-15 03:00N 48°24' W 005°09'7 8.7
2017-Nov-15 02:14N 48°22' W 004°59'2 8.5
2017-Nov-15 02:00N 48°21' W 004°57'4 8.6
2017-Nov-15 01:30N 48°22' W 004°50'2 0.2
2017-Nov-14 15:49N 48°22' W 004°47'1 2.3
2017-Nov-14 15:29N 48°22' W 004°48'5 9.7
2017-Nov-14 14:56N 48°26' W 004°53'4 8.7
2017-Nov-14 14:28N 48°28' W 004°58'5 9.9
2017-Nov-14 14:00N 48°31' W 005°04'510.4
2017-Nov-14 13:29N 48°30' W 005°12'13 9.7
2017-Nov-14 12:11N 48°27' W 005°30'1 1.0
2017-Nov-14 11:27N 48°27' W 005°31'2 1.2
2017-Nov-14 10:06N 48°25' W 005°30'0 1.7
2017-Nov-14 09:51N 48°25' W 005°31'1 1.2
2017-Nov-14 09:11N 48°25' W 005°32'2 1.4
2017-Nov-14 07:59N 48°24' W 005°34'2 0.9
2017-Nov-14 06:17N 48°23' W 005°32'0 0.9
2017-Nov-14 05:50N 48°22' W 005°32'1 2.9
2017-Nov-14 05:29N 48°23' W 005°31'1 1.2
2017-Nov-14 04:59N 48°23' W 005°30'3 5.7
2017-Nov-14 04:23N 48°23' W 005°25'3 8.7
2017-Nov-14 04:01N 48°22' W 005°20'4 8.5
2017-Nov-14 03:29N 48°22' W 005°13'4 8.4
2017-Nov-14 02:58N 48°22' W 005°07'4 8.4
2017-Nov-14 02:30N 48°22' W 005°01'4 8.8
2017-Nov-14 02:00N 48°21' W 004°54'4 8.7
2017-Nov-14 01:31N 48°22' W 004°48'6 0.3
2017-Nov-13 02:00N 48°21' W 004°57'5 9.3
2017-Nov-13 01:31N 48°22' W 004°50'2 0.2
2017-Nov-12 17:17N 48°22' W 004°47'0 0.1
2017-Nov-12 17:00N 48°22' W 004°47'3 5.1
2017-Nov-12 16:29N 48°22' W 004°51'5 8.2
2017-Nov-12 15:56N 48°21' W 004°58'4 8.8
2017-Nov-12 15:30N 48°23' W 005°03'4 8.7
2017-Nov-12 14:59N 48°24' W 005°09'5 9.0
2017-Nov-12 14:24N 48°26' W 005°17'4 8.7
2017-Nov-12 14:00N 48°26' W 005°22'5 6.4
2017-Nov-12 13:11N 48°27' W 005°30'1 1.2
2017-Nov-12 12:44N 48°27' W 005°29'2 3.6
2017-Nov-12 12:17N 48°26' W 005°31'1 1.7
2017-Nov-12 11:50N 48°27' W 005°30'1 0.9
2017-Nov-12 10:31N 48°25' W 005°30'1 2.1
2017-Nov-12 10:00N 48°24' W 005°31'2 1.1
2017-Nov-12 07:58N 48°23' W 005°33'1 0.7
2017-Nov-12 06:28N 48°23' W 005°31'0 0.7
2017-Nov-12 05:48N 48°23' W 005°31'1 1.3
2017-Nov-12 05:17N 48°22' W 005°30'2 3.0
2017-Nov-12 04:45N 48°22' W 005°28'2 8.3
2017-Nov-12 04:30N 48°22' W 005°25'4 8.3
2017-Nov-12 04:00N 48°22' W 005°19'4 8.0
2017-Nov-12 03:29N 48°22' W 005°12'4 7.9
2017-Nov-12 02:57N 48°22' W 005°06'4 7.8
2017-Nov-12 02:30N 48°22' W 005°01'4 8.3
2017-Nov-12 02:00N 48°22' W 004°55'4 8.5
2017-Nov-12 01:31N 48°22' W 004°48'1 0.1
2017-Nov-11 15:09N 48°22' W 004°47'0 0.2
2017-Nov-11 14:55N 48°22' W 004°47'0 0.0
2017-Nov-11 14:30N 48°22' W 004°47'3 5.1
2017-Nov-11 13:59N 48°22' W 004°51'4 7.7
2017-Nov-11 13:31N 48°21' W 004°56'5 8.9
2017-Nov-11 12:59N 48°23' W 005°03'4 9.5
2017-Nov-11 12:31N 48°25' W 005°09'5 9.4
2017-Nov-11 11:59N 48°26' W 005°16'3 5.2
2017-Nov-11 11:30N 48°25' W 005°19'3 6.4
2017-Nov-11 11:01N 48°22' W 005°20'4 7.7
2017-Nov-11 10:30N 48°26' W 005°21'2 3.1
2017-Nov-11 10:00N 48°28' W 005°20'2 3.3
2017-Nov-11 09:29N 48°26' W 005°18'3 6.9
2017-Nov-11 09:00N 48°25' W 005°14'4 7.2
2017-Nov-11 08:30N 48°23' W 005°09'4 7.2
2017-Nov-11 08:00N 48°21' W 005°04'4 7.4
2017-Nov-11 07:30N 48°20' W 004°59'4 7.2
2017-Nov-11 07:00N 48°20' W 004°54'3 6.8
2017-Nov-11 06:31N 48°21' W 004°49'2 3.4
2017-Nov-11 05:59N 48°22' W 004°47'0 0.0
2017-Nov-10 18:56N 48°22' W 004°47'2 4.3
2017-Nov-10 18:31N 48°21' W 004°49'5 9.3
2017-Nov-10 18:00N 48°20' W 004°56'4 8.8
2017-Nov-10 17:31N 48°19' W 005°02'4 8.7
2017-Nov-10 17:00N 48°20' W 005°09'4 8.9
2017-Nov-10 16:30N 48°21' W 005°15'4 8.7
2017-Nov-10 16:00N 48°23' W 005°21'4 8.6
2017-Nov-10 15:30N 48°25' W 005°27'2 2.8
2017-Nov-10 14:54N 48°25' W 005°30'0 0.9
2017-Nov-10 14:29N 48°25' W 005°30'0 0.4
2017-Nov-10 13:56N 48°25' W 005°31'1 1.4
2017-Nov-10 13:09N 48°24' W 005°32'0 0.6
2017-Nov-10 12:56N 48°24' W 005°32'3 7.4
2017-Nov-10 12:28N 48°27' W 005°29'1 1.0
2017-Nov-10 11:53N 48°27' W 005°29'1 0.9
2017-Nov-10 11:06N 48°26' W 005°30'2 2.4
2017-Nov-10 10:20N 48°25' W 005°32'2 0.6
2017-Nov-10 06:58N 48°23' W 005°32'0 0.4
2017-Nov-10 05:55N 48°22' W 005°32'1 1.2
2017-Nov-10 05:12N 48°22' W 005°30'1 5.2
2017-Nov-10 04:58N 48°22' W 005°29'4 7.7
2017-Nov-10 04:30N 48°21' W 005°23'4 7.7
2017-Nov-10 04:00N 48°21' W 005°17'4 7.7
2017-Nov-10 03:30N 48°21' W 005°12'4 7.5
2017-Nov-10 03:00N 48°20' W 005°06'4 7.5
2017-Nov-10 02:30N 48°20' W 005°01'4 8.5
2017-Nov-10 02:00N 48°20' W 004°54'4 8.3
2017-Nov-10 01:30N 48°21' W 004°48'  
Track history (hours):
 
Tides and Currents Weather Stations Pressure Air Temp Water Temp Dewpoint Dewpoint Depression Visibility Wind Speed Wind Dir Waves Ship Positions

F/V Kadege

Last reported at 2017-Nov-18 15:30 UTC. Time now 2017-Nov-22 02:02 UTC.
Position N 48°22' W 004°47'.

Length 15 m; draft 3 m.

Type: Fishing. MMSI: 226084000.

Date/timePositionNaut miles runAvg speedWind from/ knotsBaromVisibWave heightAir tempDewpointWater temp
2017-Nov-18 15:30N 48°22' W 004°47'2 3.0
2017-Nov-18 15:01N 48°22' W 004°49'4 8.3
2017-Nov-18 14:31N 48°25' W 004°53'4 8.3
2017-Nov-18 14:01N 48°28' W 004°58'510.2
2017-Nov-18 13:30N 48°30' W 005°05'611.0
2017-Nov-18 13:00N 48°29' W 005°14'11 7.8
2017-Nov-18 11:37N 48°27' W 005°30'1 3.6
2017-Nov-18 11:26N 48°28' W 005°29'1 1.2
2017-Nov-18 10:43N 48°27' W 005°30'1 5.9
2017-Nov-18 10:30N 48°27' W 005°29'2 2.5
2017-Nov-18 09:40N 48°25' W 005°31'1 2.8
2017-Nov-18 09:20N 48°26' W 005°30'2 3.8
2017-Nov-18 08:53N 48°25' W 005°32'1 1.9
2017-Nov-18 08:18N 48°24' W 005°34'1 1.8
2017-Nov-18 07:53N 48°25' W 005°33'2 4.2
2017-Nov-18 07:25N 48°23' W 005°34'1 1.3
2017-Nov-18 06:41N 48°23' W 005°32'2 4.5
2017-Nov-18 06:19N 48°24' W 005°30'1 0.9
2017-Nov-18 05:46N 48°23' W 005°31'1 1.1
2017-Nov-18 05:10N 48°23' W 005°30'1 3.6
2017-Nov-18 05:00N 48°23' W 005°30'4 7.9
2017-Nov-18 04:27N 48°22' W 005°23'4 8.0
2017-Nov-18 04:00N 48°22' W 005°18'4 8.2
2017-Nov-18 03:30N 48°21' W 005°12'4 8.7
2017-Nov-18 03:01N 48°21' W 005°05'4 8.9
2017-Nov-18 02:31N 48°20' W 004°59'4 8.3
2017-Nov-18 02:01N 48°20' W 004°52'4 7.0
2017-Nov-18 01:31N 48°21' W 004°48'1 0.0
2017-Nov-17 05:56N 48°22' W 004°47'0 0.0
2017-Nov-16 15:49N 48°22' W 004°47'0 0.1
2017-Nov-16 15:30N 48°22' W 004°47'4 8.5
2017-Nov-16 15:00N 48°24' W 004°52'4 8.5
2017-Nov-16 14:30N 48°27' W 004°57'5 9.0
2017-Nov-16 14:00N 48°30' W 005°02'610.4
2017-Nov-16 13:28N 48°30' W 005°11'510.0
2017-Nov-16 12:59N 48°29' W 005°18'9 5.1
2017-Nov-16 11:18N 48°27' W 005°31'1 1.1
2017-Nov-16 10:38N 48°27' W 005°31'1 2.9
2017-Nov-16 10:06N 48°26' W 005°30'0 3.5
2017-Nov-16 09:59N 48°26' W 005°29'1 1.9
2017-Nov-16 09:23N 48°25' W 005°31'1 1.4
2017-Nov-16 08:43N 48°25' W 005°32'1 1.4
2017-Nov-16 07:58N 48°24' W 005°33'2 3.2
2017-Nov-16 07:22N 48°22' W 005°34'2 1.6
2017-Nov-16 06:13N 48°23' W 005°31'1 1.2
2017-Nov-16 05:29N 48°23' W 005°30'1 0.8
2017-Nov-16 04:50N 48°23' W 005°29'2 6.7
2017-Nov-16 04:30N 48°23' W 005°26'5 8.2
2017-Nov-16 03:54N 48°23' W 005°18'3 8.3
2017-Nov-16 03:30N 48°23' W 005°14'4 8.6
2017-Nov-16 03:00N 48°22' W 005°07'4 8.7
2017-Nov-16 02:30N 48°22' W 005°01'4 8.3
2017-Nov-16 02:00N 48°22' W 004°55'4 8.1
2017-Nov-16 01:30N 48°22' W 004°48'1 0.1
2017-Nov-15 13:22N 48°22' W 004°47'0 0.1
2017-Nov-15 13:01N 48°22' W 004°47'3 5.7
2017-Nov-15 12:30N 48°22' W 004°51'5 9.2
2017-Nov-15 12:00N 48°22' W 004°58'4 8.2
2017-Nov-15 11:30N 48°22' W 005°04'4 8.2
2017-Nov-15 10:59N 48°22' W 005°10'5 8.3
2017-Nov-15 10:25N 48°24' W 005°17'1 3.4
2017-Nov-15 10:00N 48°24' W 005°19'1 2.2
2017-Nov-15 09:29N 48°23' W 005°20'1 1.9
2017-Nov-15 08:59N 48°22' W 005°20'2 3.5
2017-Nov-15 08:30N 48°23' W 005°21'1 2.1
2017-Nov-15 07:59N 48°24' W 005°21'1 1.4
2017-Nov-15 07:26N 48°25' W 005°21'1 1.9
2017-Nov-15 06:57N 48°25' W 005°19'1 1.6
2017-Nov-15 06:27N 48°26' W 005°19'1 1.9
2017-Nov-15 05:55N 48°27' W 005°19'2 4.2
2017-Nov-15 05:30N 48°25' W 005°21'1 1.7
2017-Nov-15 05:00N 48°26' W 005°21'1 2.1
2017-Nov-15 04:30N 48°27' W 005°20'1 1.1
2017-Nov-15 04:00N 48°28' W 005°20'4 8.3
2017-Nov-15 03:30N 48°26' W 005°15'4 8.6
2017-Nov-15 03:00N 48°24' W 005°09'7 8.7
2017-Nov-15 02:14N 48°22' W 004°59'2 8.5
2017-Nov-15 02:00N 48°21' W 004°57'4 8.6
2017-Nov-15 01:30N 48°22' W 004°50'2 0.2
2017-Nov-14 15:49N 48°22' W 004°47'1 2.3
2017-Nov-14 15:29N 48°22' W 004°48'5 9.7
2017-Nov-14 14:56N 48°26' W 004°53'4 8.7
2017-Nov-14 14:28N 48°28' W 004°58'5 9.9
2017-Nov-14 14:00N 48°31' W 005°04'510.4
2017-Nov-14 13:29N 48°30' W 005°12'13 9.7
2017-Nov-14 12:11N 48°27' W 005°30'1 1.0
2017-Nov-14 11:27N 48°27' W 005°31'2 1.2
2017-Nov-14 10:06N 48°25' W 005°30'0 1.7
2017-Nov-14 09:51N 48°25' W 005°31'1 1.2
2017-Nov-14 09:11N 48°25' W 005°32'2 1.4
2017-Nov-14 07:59N 48°24' W 005°34'2 0.9
2017-Nov-14 06:17N 48°23' W 005°32'0 0.9
2017-Nov-14 05:50N 48°22' W 005°32'1 2.9
2017-Nov-14 05:29N 48°23' W 005°31'1 1.2
2017-Nov-14 04:59N 48°23' W 005°30'3 5.7
2017-Nov-14 04:23N 48°23' W 005°25'3 8.7
2017-Nov-14 04:01N 48°22' W 005°20'4 8.5
2017-Nov-14 03:29N 48°22' W 005°13'4 8.4
2017-Nov-14 02:58N 48°22' W 005°07'4 8.4
2017-Nov-14 02:30N 48°22' W 005°01'4 8.8
2017-Nov-14 02:00N 48°21' W 004°54'4 8.7
2017-Nov-14 01:31N 48°22' W 004°48'6 0.3
2017-Nov-13 02:00N 48°21' W 004°57'5 9.3
2017-Nov-13 01:31N 48°22' W 004°50'2 0.2
2017-Nov-12 17:17N 48°22' W 004°47'0 0.1
2017-Nov-12 17:00N 48°22' W 004°47'3 5.1
2017-Nov-12 16:29N 48°22' W 004°51'5 8.2
2017-Nov-12 15:56N 48°21' W 004°58'4 8.8
2017-Nov-12 15:30N 48°23' W 005°03'4 8.7
2017-Nov-12 14:59N 48°24' W 005°09'5 9.0
2017-Nov-12 14:24N 48°26' W 005°17'4 8.7
2017-Nov-12 14:00N 48°26' W 005°22'5 6.4
2017-Nov-12 13:11N 48°27' W 005°30'1 1.2
2017-Nov-12 12:44N 48°27' W 005°29'2 3.6
2017-Nov-12 12:17N 48°26' W 005°31'1 1.7
2017-Nov-12 11:50N 48°27' W 005°30'1 0.9
2017-Nov-12 10:31N 48°25' W 005°30'1 2.1
2017-Nov-12 10:00N 48°24' W 005°31'2 1.1
2017-Nov-12 07:58N 48°23' W 005°33'1 0.7
2017-Nov-12 06:28N 48°23' W 005°31'0 0.7
2017-Nov-12 05:48N 48°23' W 005°31'1 1.3
2017-Nov-12 05:17N 48°22' W 005°30'2 3.0
2017-Nov-12 04:45N 48°22' W 005°28'2 8.3
2017-Nov-12 04:30N 48°22' W 005°25'4 8.3
2017-Nov-12 04:00N 48°22' W 005°19'4 8.0
2017-Nov-12 03:29N 48°22' W 005°12'4 7.9
2017-Nov-12 02:57N 48°22' W 005°06'4 7.8
2017-Nov-12 02:30N 48°22' W 005°01'4 8.3
2017-Nov-12 02:00N 48°22' W 004°55'4 8.5
2017-Nov-12 01:31N 48°22' W 004°48'1 0.1
2017-Nov-11 15:09N 48°22' W 004°47'0 0.2
2017-Nov-11 14:55N 48°22' W 004°47'0 0.0
2017-Nov-11 14:30N 48°22' W 004°47'3 5.1
2017-Nov-11 13:59N 48°22' W 004°51'4 7.7
2017-Nov-11 13:31N 48°21' W 004°56'5 8.9
2017-Nov-11 12:59N 48°23' W 005°03'4 9.5
2017-Nov-11 12:31N 48°25' W 005°09'5 9.4
2017-Nov-11 11:59N 48°26' W 005°16'3 5.2
2017-Nov-11 11:30N 48°25' W 005°19'3 6.4
2017-Nov-11 11:01N 48°22' W 005°20'4 7.7
2017-Nov-11 10:30N 48°26' W 005°21'2 3.1
2017-Nov-11 10:00N 48°28' W 005°20'2 3.3
2017-Nov-11 09:29N 48°26' W 005°18'3 6.9
2017-Nov-11 09:00N 48°25' W 005°14'4 7.2
2017-Nov-11 08:30N 48°23' W 005°09'4 7.2
2017-Nov-11 08:00N 48°21' W 005°04'4 7.4
2017-Nov-11 07:30N 48°20' W 004°59'4 7.2
2017-Nov-11 07:00N 48°20' W 004°54'3 6.8
2017-Nov-11 06:31N 48°21' W 004°49'2 3.4
2017-Nov-11 05:59N 48°22' W 004°47'0 0.0
2017-Nov-10 18:56N 48°22' W 004°47'2 4.3
2017-Nov-10 18:31N 48°21' W 004°49'5 9.3
2017-Nov-10 18:00N 48°20' W 004°56'4 8.8
2017-Nov-10 17:31N 48°19' W 005°02'4 8.7
2017-Nov-10 17:00N 48°20' W 005°09'4 8.9
2017-Nov-10 16:30N 48°21' W 005°15'4 8.7
2017-Nov-10 16:00N 48°23' W 005°21'4 8.6
2017-Nov-10 15:30N 48°25' W 005°27'2 2.8
2017-Nov-10 14:54N 48°25' W 005°30'0 0.9
2017-Nov-10 14:29N 48°25' W 005°30'0 0.4
2017-Nov-10 13:56N 48°25' W 005°31'1 1.4
2017-Nov-10 13:09N 48°24' W 005°32'0 0.6
2017-Nov-10 12:56N 48°24' W 005°32'3 7.4
2017-Nov-10 12:28N 48°27' W 005°29'1 1.0
2017-Nov-10 11:53N 48°27' W 005°29'1 0.9
2017-Nov-10 11:06N 48°26' W 005°30'2 2.4
2017-Nov-10 10:20N 48°25' W 005°32'2 0.6
2017-Nov-10 06:58N 48°23' W 005°32'0 0.4
2017-Nov-10 05:55N 48°22' W 005°32'1 1.2
2017-Nov-10 05:12N 48°22' W 005°30'1 5.2
2017-Nov-10 04:58N 48°22' W 005°29'4 7.7
2017-Nov-10 04:30N 48°21' W 005°23'4 7.7
2017-Nov-10 04:00N 48°21' W 005°17'4 7.7
2017-Nov-10 03:30N 48°21' W 005°12'4 7.5
2017-Nov-10 03:00N 48°20' W 005°06'4 7.5
2017-Nov-10 02:30N 48°20' W 005°01'4 8.5
2017-Nov-10 02:00N 48°20' W 004°54'4 8.3
2017-Nov-10 01:30N 48°21' W 004°48'  

Dump ship's entire track history